createdAt,value
2022-11-27T00:01:10.810Z,17.30
2022-11-27T00:03:40.646Z,17.30
2022-11-27T00:06:12.672Z,17.30
2022-11-27T00:08:40.437Z,17.40
2022-11-27T00:11:09.650Z,17.40
2022-11-27T00:13:38.346Z,17.30
2022-11-27T00:16:07.412Z,17.30
2022-11-27T00:18:35.797Z,17.30
2022-11-27T00:21:07.123Z,17.30
2022-11-27T00:23:36.169Z,17.30
2022-11-27T00:26:05.341Z,17.30
2022-11-27T00:28:34.052Z,17.30
2022-11-27T00:31:02.741Z,17.30
2022-11-27T00:33:30.598Z,17.30
2022-11-27T00:36:02.322Z,17.30
2022-11-27T00:38:34.672Z,17.30
2022-11-27T00:41:10.315Z,17.30
2022-11-27T00:43:44.428Z,17.40
2022-11-27T00:46:13.389Z,17.30
2022-11-27T00:48:41.452Z,17.30
2022-11-27T00:51:12.321Z,17.30
2022-11-27T00:53:41.729Z,17.30
2022-11-27T00:56:09.997Z,17.30
2022-11-27T00:58:37.827Z,17.30
2022-11-27T01:01:07.759Z,17.30
2022-11-27T01:03:36.389Z,17.30
2022-11-27T01:06:05.438Z,17.30
2022-11-27T01:08:33.583Z,17.30
2022-11-27T01:11:02.999Z,17.30
2022-11-27T01:13:32.880Z,17.30
2022-11-27T01:16:01.636Z,17.30
2022-11-27T01:18:29.993Z,17.30
2022-11-27T01:20:58.288Z,17.30
2022-11-27T01:23:26.170Z,17.20
2022-11-27T01:25:54.170Z,17.30
2022-11-27T01:28:24.637Z,17.20
2022-11-27T01:30:52.852Z,17.30
2022-11-27T01:33:21.111Z,17.30
2022-11-27T01:35:56.320Z,17.30
2022-11-27T01:38:25.023Z,17.30
2022-11-27T01:40:58.027Z,17.20
2022-11-27T01:43:41.964Z,17.20
2022-11-27T01:46:18.898Z,17.20
2022-11-27T01:48:47.823Z,17.30
2022-11-27T01:51:15.672Z,17.20
2022-11-27T01:53:43.652Z,17.20
2022-11-27T01:56:11.989Z,17.20
2022-11-27T01:58:41.500Z,17.20
2022-11-27T02:01:09.318Z,17.20
2022-11-27T02:03:37.377Z,17.30
2022-11-27T02:06:05.501Z,17.20
2022-11-27T02:08:33.504Z,17.20
2022-11-27T02:11:06.335Z,17.20
2022-11-27T02:13:39.096Z,17.20
2022-11-27T02:16:18.254Z,17.20
2022-11-27T02:18:53.745Z,17.20
2022-11-27T02:21:27.129Z,17.20
2022-11-27T02:24:17.718Z,17.20
2022-11-27T02:27:21.341Z,17.10
2022-11-27T02:29:55.293Z,17.20
2022-11-27T02:32:30.179Z,17.20
2022-11-27T02:35:04.063Z,17.20
2022-11-27T02:37:36.277Z,17.20
2022-11-27T02:40:11.107Z,17.20
2022-11-27T02:42:43.165Z,17.20
2022-11-27T02:45:14.811Z,17.20
2022-11-27T02:47:45.613Z,17.20
2022-11-27T02:50:19.210Z,17.20
2022-11-27T02:52:49.997Z,17.20
2022-11-27T02:55:23.074Z,17.20
2022-11-27T02:57:55.007Z,17.20
2022-11-27T03:00:24.585Z,17.10
2022-11-27T03:02:56.797Z,17.20
2022-11-27T03:05:27.686Z,17.20
2022-11-27T03:08:00.454Z,17.20
2022-11-27T03:10:32.521Z,17.20
2022-11-27T03:13:01.317Z,17.10
2022-11-27T03:15:52.347Z,17.10
2022-11-27T03:18:25.253Z,17.10
2022-11-27T03:21:04.516Z,17.20
2022-11-27T03:23:32.329Z,17.20
2022-11-27T03:26:00.089Z,17.10
2022-11-27T03:28:29.562Z,17.20
2022-11-27T03:30:59.098Z,17.20
2022-11-27T03:33:27.081Z,17.10
2022-11-27T03:35:54.985Z,17.20
2022-11-27T03:38:22.817Z,17.20
2022-11-27T03:40:58.534Z,17.20
2022-11-27T03:43:30.673Z,17.10
2022-11-27T03:46:07.369Z,17.20
2022-11-27T03:48:39.143Z,17.10
2022-11-27T03:51:15.508Z,17.10
2022-11-27T03:53:52.649Z,17.10
2022-11-27T03:56:31.048Z,17.10
2022-11-27T03:59:03.391Z,17.10
2022-11-27T04:01:32.963Z,17.10
2022-11-27T04:04:01.089Z,17.10
2022-11-27T04:06:28.965Z,17.10
2022-11-27T04:08:56.754Z,17.10
2022-11-27T04:11:24.530Z,17.10
2022-11-27T04:13:52.728Z,17.10
2022-11-27T04:16:20.846Z,17.10
2022-11-27T04:18:50.114Z,17.00
2022-11-27T04:21:18.136Z,17.00
2022-11-27T04:23:46.153Z,17.00
2022-11-27T04:26:13.976Z,16.90
2022-11-27T04:28:41.839Z,16.90
2022-11-27T04:31:09.668Z,16.90
2022-11-27T04:33:37.513Z,16.90
2022-11-27T04:36:07.405Z,16.80
2022-11-27T04:38:35.167Z,16.70
2022-11-27T04:41:02.946Z,16.70
2022-11-27T04:43:30.753Z,16.70
2022-11-27T04:45:58.510Z,16.80
2022-11-27T04:48:26.289Z,16.80
2022-11-27T04:50:55.600Z,16.90
2022-11-27T04:53:24.775Z,16.90
2022-11-27T04:55:52.658Z,16.80
2022-11-27T04:58:20.433Z,16.70
2022-11-27T05:00:48.310Z,16.70
2022-11-27T05:03:17.369Z,16.60
2022-11-27T05:05:45.183Z,16.60
2022-11-27T05:08:13.020Z,16.50
2022-11-27T05:10:42.164Z,16.50
2022-11-27T05:13:09.962Z,16.60
2022-11-27T05:15:37.726Z,16.60
2022-11-27T05:18:05.678Z,16.60
2022-11-27T05:20:33.494Z,16.70
2022-11-27T05:23:01.271Z,16.60
2022-11-27T05:25:29.041Z,16.60
2022-11-27T05:27:58.114Z,16.60
2022-11-27T05:30:25.861Z,16.70
2022-11-27T05:32:53.906Z,16.70
2022-11-27T05:35:21.717Z,16.80
2022-11-27T05:37:49.504Z,16.90
2022-11-27T05:40:17.416Z,16.90
2022-11-27T05:42:45.198Z,17.00
2022-11-27T05:45:14.333Z,17.10
2022-11-27T05:47:42.117Z,17.10
2022-11-27T05:50:10.335Z,17.10
2022-11-27T05:52:38.149Z,17.10
2022-11-27T05:55:06.839Z,17.10
2022-11-27T05:57:34.650Z,17.10
2022-11-27T06:00:02.576Z,17.10
2022-11-27T06:02:34.255Z,17.10
2022-11-27T06:05:02.062Z,17.10
2022-11-27T06:07:29.844Z,17.10
2022-11-27T06:09:57.612Z,17.10
2022-11-27T06:12:25.438Z,17.10
2022-11-27T06:14:53.232Z,17.00
2022-11-27T06:17:21.015Z,17.00
2022-11-27T06:19:51.409Z,17.00
2022-11-27T06:22:19.222Z,17.00
2022-11-27T06:24:47.013Z,17.00
2022-11-27T06:27:14.822Z,17.00
2022-11-27T06:29:42.762Z,17.00
2022-11-27T06:32:10.608Z,17.00
2022-11-27T06:34:38.702Z,17.00
2022-11-27T06:37:12.993Z,17.00
2022-11-27T06:39:41.189Z,17.00
2022-11-27T06:42:09.028Z,17.00
2022-11-27T06:44:36.815Z,17.00
2022-11-27T06:47:04.634Z,17.00
2022-11-27T06:49:32.475Z,17.00
2022-11-27T06:52:01.170Z,17.00
2022-11-27T06:54:30.350Z,17.00
2022-11-27T06:56:58.358Z,17.00
2022-11-27T06:59:26.129Z,17.00
2022-11-27T07:01:54.051Z,17.00
2022-11-27T07:04:21.855Z,17.00
2022-11-27T07:06:49.622Z,17.00
2022-11-27T07:09:17.725Z,17.00
2022-11-27T07:11:46.924Z,17.00
2022-11-27T07:14:14.698Z,17.00
2022-11-27T07:16:42.607Z,17.00
2022-11-27T07:19:11.760Z,17.00
2022-11-27T07:21:40.034Z,16.90
2022-11-27T07:24:08.808Z,16.90
2022-11-27T07:26:36.558Z,16.90
2022-11-27T07:29:05.745Z,16.90
2022-11-27T07:31:33.541Z,16.90
2022-11-27T07:34:01.385Z,16.90
2022-11-27T07:36:31.246Z,16.90
2022-11-27T07:38:59.352Z,16.90
2022-11-27T07:41:33.448Z,16.90
2022-11-27T07:44:02.119Z,17.00
2022-11-27T07:46:31.370Z,17.00
2022-11-27T07:49:00.358Z,16.90
2022-11-27T07:51:28.626Z,17.00
2022-11-27T07:53:56.457Z,17.00
2022-11-27T07:56:24.307Z,17.00
2022-11-27T07:58:52.085Z,17.00
2022-11-27T08:01:21.469Z,17.00
2022-11-27T08:03:50.782Z,17.00
2022-11-27T08:06:21.036Z,17.00
2022-11-27T08:08:48.877Z,17.00
2022-11-27T08:11:18.421Z,17.00
2022-11-27T08:13:46.230Z,17.00
2022-11-27T08:16:14.147Z,17.00
2022-11-27T08:18:42.103Z,17.00
2022-11-27T08:21:11.280Z,17.00
2022-11-27T08:23:39.245Z,17.10
2022-11-27T08:26:08.389Z,17.10
2022-11-27T08:28:36.894Z,17.00
2022-11-27T08:31:06.821Z,17.10
2022-11-27T08:33:35.361Z,17.10
2022-11-27T08:36:03.732Z,17.10
2022-11-27T08:38:33.027Z,17.20
2022-11-27T08:41:02.906Z,17.20
2022-11-27T08:43:31.656Z,17.30
2022-11-27T08:45:59.901Z,17.20
2022-11-27T08:48:28.496Z,17.30
2022-11-27T08:50:56.317Z,17.30
2022-11-27T08:53:24.116Z,17.30
2022-11-27T08:55:53.206Z,17.30
2022-11-27T08:58:21.027Z,17.30
2022-11-27T09:00:48.993Z,17.30
2022-11-27T09:03:16.779Z,17.30
2022-11-27T09:05:47.427Z,17.30
2022-11-27T09:08:20.095Z,17.40
2022-11-27T09:10:48.137Z,17.40
2022-11-27T09:13:17.337Z,17.40
2022-11-27T09:15:45.125Z,17.40
2022-11-27T09:18:12.955Z,17.40
2022-11-27T09:20:40.771Z,17.50
2022-11-27T09:23:14.153Z,17.40
2022-11-27T09:25:42.215Z,17.40
2022-11-27T09:28:09.957Z,17.40
2022-11-27T09:30:39.876Z,17.30
2022-11-27T09:33:07.725Z,17.30
2022-11-27T09:35:38.197Z,17.20
2022-11-27T09:38:06.273Z,17.20
2022-11-27T09:40:35.433Z,17.30
2022-11-27T09:43:09.751Z,17.20
2022-11-27T09:45:43.978Z,17.20
2022-11-27T09:48:16.157Z,17.20
2022-11-27T09:50:50.350Z,17.20
2022-11-27T09:53:27.927Z,17.20
2022-11-27T09:55:59.657Z,17.20
2022-11-27T09:58:39.396Z,17.20
2022-11-27T10:01:19.526Z,17.20
2022-11-27T10:03:47.818Z,17.20
2022-11-27T10:06:27.893Z,17.20
2022-11-27T10:09:12.538Z,17.20
2022-11-27T10:11:49.428Z,17.20
2022-11-27T10:14:31.137Z,17.20
2022-11-27T10:17:05.190Z,17.20
2022-11-27T10:19:40.005Z,17.20
2022-11-27T10:22:19.708Z,17.20
2022-11-27T10:25:03.111Z,17.20
2022-11-27T10:27:39.178Z,17.20
2022-11-27T10:30:15.267Z,17.20
2022-11-27T10:32:55.775Z,17.20
2022-11-27T10:35:26.957Z,17.30
2022-11-27T10:38:01.001Z,17.20
2022-11-27T10:40:38.475Z,17.20
2022-11-27T10:43:11.671Z,17.20
2022-11-27T10:45:45.045Z,17.20
2022-11-27T10:48:15.372Z,17.20
2022-11-27T10:50:44.053Z,17.30
2022-11-27T10:53:15.877Z,17.20
2022-11-27T10:56:05.482Z,17.40
2022-11-27T10:58:37.506Z,17.40
2022-11-27T11:01:07.731Z,17.40
2022-11-27T11:03:37.461Z,17.40
2022-11-27T11:06:23.810Z,17.40
2022-11-27T11:09:03.460Z,17.50
2022-11-27T11:11:31.290Z,17.40
2022-11-27T11:13:59.145Z,17.50
2022-11-27T11:16:34.918Z,17.40
2022-11-27T11:19:06.110Z,17.40
2022-11-27T11:21:35.969Z,17.50
2022-11-27T11:24:06.315Z,17.40
2022-11-27T11:26:38.672Z,17.50
2022-11-27T11:29:26.024Z,17.40
2022-11-27T11:36:13.701Z,17.40
2022-11-27T11:38:45.282Z,17.50
2022-11-27T11:41:13.658Z,17.40
2022-11-27T11:43:41.611Z,17.40
2022-11-27T11:46:19.255Z,17.40
2022-11-27T11:48:59.270Z,17.40
2022-11-27T11:51:58.497Z,17.40
2022-11-27T11:54:49.770Z,17.40
2022-11-27T11:57:47.215Z,17.40
2022-11-27T12:00:17.978Z,17.50
2022-11-27T12:03:01.246Z,17.40
2022-11-27T12:05:37.677Z,17.40
2022-11-27T12:08:29.647Z,17.40
2022-11-27T12:11:07.803Z,17.40
2022-11-27T12:13:50.391Z,17.40
2022-11-27T12:16:28.171Z,17.40
2022-11-27T12:19:19.261Z,17.50
2022-11-27T12:21:57.488Z,17.40
2022-11-27T12:24:39.832Z,17.40
2022-11-27T12:27:23.405Z,17.40
2022-11-27T12:30:13.108Z,17.40
2022-11-27T12:33:12.240Z,17.40
2022-11-27T12:35:45.512Z,17.30
2022-11-27T12:38:30.979Z,17.40
2022-11-27T12:41:20.426Z,17.30
2022-11-27T12:43:51.918Z,17.40
2022-11-27T12:46:24.228Z,17.40
2022-11-27T12:48:56.962Z,17.40
2022-11-27T12:51:28.750Z,17.40
2022-11-27T12:54:02.107Z,17.40
2022-11-27T12:56:34.593Z,17.40
2022-11-27T12:59:09.734Z,17.40
2022-11-27T13:01:42.151Z,17.40
2022-11-27T13:04:19.168Z,17.40
2022-11-27T13:06:53.917Z,17.40
2022-11-27T13:09:28.654Z,17.40
2022-11-27T13:11:58.550Z,17.40
2022-11-27T13:14:28.313Z,17.30
2022-11-27T13:16:59.427Z,17.40
2022-11-27T13:19:33.042Z,17.40
2022-11-27T13:22:03.541Z,17.40
2022-11-27T13:24:31.686Z,17.30
2022-11-27T13:27:07.255Z,17.40
2022-11-27T13:29:40.875Z,17.40
2022-11-27T13:32:10.770Z,17.30
2022-11-27T13:34:47.191Z,17.40
2022-11-27T13:37:27.901Z,17.40
2022-11-27T13:40:01.478Z,17.40
2022-11-27T13:42:31.490Z,17.40
2022-11-27T13:45:01.677Z,17.40
2022-11-27T13:47:36.331Z,17.40
2022-11-27T13:50:07.046Z,17.40
2022-11-27T13:52:35.284Z,17.30
2022-11-27T13:55:05.437Z,17.40
2022-11-27T13:57:36.060Z,17.40
2022-11-27T14:00:07.902Z,17.40
2022-11-27T14:02:44.711Z,17.30
2022-11-27T14:05:13.450Z,17.30
2022-11-27T14:07:45.077Z,17.30
2022-11-27T14:10:16.573Z,17.30
2022-11-27T14:12:54.404Z,17.30
2022-11-27T14:15:24.373Z,17.30
2022-11-27T14:17:55.138Z,17.40
2022-11-27T14:20:29.595Z,17.30
2022-11-27T14:23:14.359Z,17.30
2022-11-27T14:25:42.498Z,17.30
2022-11-27T14:28:17.769Z,17.30
2022-11-27T14:30:49.514Z,17.30
2022-11-27T14:33:20.193Z,17.30
2022-11-27T14:35:51.860Z,17.30
2022-11-27T14:38:20.325Z,17.40
2022-11-27T14:40:48.902Z,17.30
2022-11-27T14:43:20.402Z,17.30
2022-11-27T14:45:51.918Z,17.30
2022-11-27T14:48:25.367Z,17.30
2022-11-27T14:50:55.636Z,17.40
2022-11-27T14:53:25.746Z,17.30
2022-11-27T14:55:56.291Z,17.30
2022-11-27T14:58:28.426Z,17.30
2022-11-27T15:00:59.943Z,17.30
2022-11-27T15:03:28.516Z,17.40
2022-11-27T15:05:59.314Z,17.30
2022-11-27T15:08:28.014Z,17.30
2022-11-27T15:10:58.407Z,17.40
2022-11-27T15:13:30.021Z,17.40
2022-11-27T15:16:02.802Z,17.40
2022-11-27T15:18:32.227Z,17.40
2022-11-27T15:21:00.604Z,17.30
2022-11-27T15:23:31.009Z,17.30
2022-11-27T15:26:15.193Z,17.30
2022-11-27T15:28:52.352Z,17.30
2022-11-27T15:31:27.241Z,17.30
2022-11-27T15:34:04.291Z,17.30
2022-11-27T15:36:42.874Z,17.30
2022-11-27T15:39:25.762Z,17.30
2022-11-27T15:41:56.273Z,17.30
2022-11-27T15:44:26.497Z,17.30
2022-11-27T15:46:56.121Z,17.30
2022-11-27T15:49:24.263Z,17.40
2022-11-27T15:51:52.872Z,17.40
2022-11-27T15:54:20.651Z,17.30
2022-11-27T15:56:48.445Z,17.40
2022-11-27T15:59:16.620Z,17.40
2022-11-27T16:01:45.842Z,17.30
2022-11-27T16:04:13.706Z,17.40
2022-11-27T16:06:41.454Z,17.40
2022-11-27T16:09:09.303Z,17.40
2022-11-27T16:11:37.137Z,17.40
2022-11-27T16:14:05.252Z,17.30
2022-11-27T16:16:33.438Z,17.30
2022-11-27T16:19:04.697Z,17.40
2022-11-27T16:21:33.474Z,17.40
2022-11-27T16:24:03.480Z,17.30
2022-11-27T16:26:32.319Z,17.30
2022-11-27T16:29:00.106Z,17.40
2022-11-27T16:31:28.182Z,17.40
2022-11-27T16:33:56.016Z,17.40
2022-11-27T16:36:27.147Z,17.40
2022-11-27T16:38:55.894Z,17.40
2022-11-27T16:41:25.953Z,17.40
2022-11-27T16:43:56.660Z,17.40
2022-11-27T16:46:27.714Z,17.40
2022-11-27T16:48:56.799Z,17.40
2022-11-27T16:51:29.097Z,17.40
2022-11-27T16:53:58.886Z,17.40
2022-11-27T16:56:29.005Z,17.40
2022-11-27T16:59:02.691Z,17.40
2022-11-27T17:01:35.685Z,17.40
2022-11-27T17:04:04.605Z,17.40
2022-11-27T17:06:35.248Z,17.40
2022-11-27T17:09:06.082Z,17.40
2022-11-27T17:11:35.678Z,17.50
2022-11-27T17:14:06.794Z,17.40
2022-11-27T17:16:36.067Z,17.40
2022-11-27T17:19:04.998Z,17.40
2022-11-27T17:21:36.128Z,17.40
2022-11-27T17:24:11.638Z,17.40
2022-11-27T17:26:44.669Z,17.50
2022-11-27T17:29:13.657Z,17.40
2022-11-27T17:31:41.842Z,17.40
2022-11-27T17:34:13.036Z,17.40
2022-11-27T17:36:43.954Z,17.40
2022-11-27T17:39:14.116Z,17.40
2022-11-27T17:41:44.425Z,17.40
2022-11-27T17:44:13.067Z,17.40
2022-11-27T17:46:40.899Z,17.40
2022-11-27T17:49:09.428Z,17.40
2022-11-27T17:51:37.524Z,17.30
2022-11-27T17:54:06.797Z,17.30
2022-11-27T17:56:35.929Z,17.30
2022-11-27T17:59:04.062Z,17.30
2022-11-27T18:01:34.464Z,17.40
2022-11-27T18:04:04.079Z,17.30
2022-11-27T18:06:32.819Z,17.30
2022-11-27T18:09:00.825Z,17.30
2022-11-27T18:11:33.583Z,17.40
2022-11-27T18:14:02.594Z,17.40
2022-11-27T18:16:32.556Z,17.40
2022-11-27T18:19:02.933Z,17.30
2022-11-27T18:21:31.034Z,17.30
2022-11-27T18:29:36.048Z,17.30
2022-11-27T18:32:03.904Z,17.30
2022-11-27T18:34:31.796Z,17.30
2022-11-27T18:37:00.688Z,17.20
2022-11-27T18:39:28.994Z,17.30
2022-11-27T18:41:58.188Z,17.20
2022-11-27T18:44:26.694Z,17.30
2022-11-27T18:46:54.719Z,17.30
2022-11-27T18:49:23.076Z,17.30
2022-11-27T18:51:52.121Z,17.30
2022-11-27T18:54:20.262Z,17.30
2022-11-27T18:56:48.371Z,17.20
2022-11-27T18:59:17.585Z,17.30
2022-11-27T19:01:46.704Z,17.30
2022-11-27T19:04:14.937Z,17.30
2022-11-27T19:06:45.798Z,17.30
2022-11-27T19:09:14.772Z,17.30
2022-11-27T19:11:44.255Z,17.30
2022-11-27T19:14:12.458Z,17.30
2022-11-27T19:16:45.930Z,17.20
2022-11-27T19:19:52.817Z,17.30
2022-11-27T19:22:04.016Z,17.30
2022-11-27T19:24:32.747Z,17.30
2022-11-27T19:27:01.333Z,17.30
2022-11-27T19:29:29.157Z,17.30
2022-11-27T19:32:00.902Z,17.30
2022-11-27T19:34:28.842Z,17.30
2022-11-27T19:36:58.008Z,17.30
2022-11-27T19:39:26.830Z,17.30
2022-11-27T19:41:54.674Z,17.20
2022-11-27T19:44:22.511Z,17.30
2022-11-27T19:46:50.321Z,17.20
2022-11-27T19:49:21.267Z,17.30
2022-11-27T19:51:49.660Z,17.30
2022-11-27T19:54:20.445Z,17.20
2022-11-27T19:56:48.287Z,17.30
2022-11-27T19:59:16.119Z,17.30
2022-11-27T20:01:44.004Z,17.30
2022-11-27T20:04:12.386Z,17.30
2022-11-27T20:06:41.924Z,17.30
2022-11-27T20:09:10.018Z,17.30
2022-11-27T20:11:38.011Z,17.20
2022-11-27T20:14:07.020Z,17.20
2022-11-27T20:16:35.791Z,17.30
2022-11-27T20:19:07.449Z,17.30
2022-11-27T20:21:36.453Z,17.20
2022-11-27T20:24:06.218Z,17.30
2022-11-27T20:26:37.159Z,17.20
2022-11-27T20:29:08.706Z,17.20
2022-11-27T20:31:38.321Z,17.20
2022-11-27T20:34:08.014Z,17.20
2022-11-27T20:36:40.414Z,17.20
2022-11-27T20:39:16.266Z,17.30
2022-11-27T20:41:47.338Z,17.20
2022-11-27T20:44:16.414Z,17.20
2022-11-27T20:46:45.092Z,17.30
2022-11-27T20:49:14.129Z,17.20
2022-11-27T20:51:42.429Z,17.20
2022-11-27T20:54:12.145Z,17.20
2022-11-27T20:56:40.807Z,17.20
2022-11-27T20:59:08.771Z,17.20
2022-11-27T21:01:37.996Z,17.20
2022-11-27T21:04:09.501Z,17.20
2022-11-27T21:06:43.802Z,17.20
2022-11-27T21:09:14.202Z,17.20
2022-11-27T21:11:43.199Z,17.20
2022-11-27T21:14:13.419Z,17.20
2022-11-27T21:16:44.779Z,17.20
2022-11-27T21:19:16.179Z,17.20
2022-11-27T21:21:44.374Z,17.20
2022-11-27T21:24:14.238Z,17.30
2022-11-27T21:26:42.149Z,17.20
2022-11-27T21:29:10.721Z,17.20
2022-11-27T21:31:42.655Z,17.20
2022-11-27T21:34:14.550Z,17.20
2022-11-27T21:36:42.486Z,17.20
2022-11-27T21:39:13.221Z,17.20
2022-11-27T21:41:41.947Z,17.20
2022-11-27T21:44:10.539Z,17.20
2022-11-27T21:46:39.004Z,17.20
2022-11-27T21:49:07.776Z,17.20
2022-11-27T21:51:35.584Z,17.20
2022-11-27T21:54:07.589Z,17.20
2022-11-27T21:56:40.067Z,17.20
2022-11-27T21:59:09.222Z,17.20
2022-11-27T22:01:37.048Z,17.20
2022-11-27T22:04:05.379Z,17.20
2022-11-27T22:06:37.738Z,17.10
2022-11-27T22:09:10.521Z,17.10
2022-11-27T22:11:42.674Z,17.20
2022-11-27T22:14:10.957Z,17.10
2022-11-27T22:16:45.387Z,17.20
2022-11-27T22:19:15.058Z,17.20
2022-11-27T22:21:44.258Z,17.20
2022-11-27T22:24:18.238Z,17.10
2022-11-27T22:26:48.842Z,17.20
2022-11-27T22:29:16.788Z,17.10
2022-11-27T22:31:44.564Z,17.20
2022-11-27T22:34:12.403Z,17.20
2022-11-27T22:36:40.817Z,17.10
2022-11-27T22:39:09.543Z,17.10
2022-11-27T22:41:39.626Z,17.10
2022-11-27T22:44:10.545Z,17.10
2022-11-27T22:46:41.347Z,17.20
2022-11-27T22:49:10.899Z,17.10
2022-11-27T22:51:38.935Z,17.10
2022-11-27T22:54:08.001Z,17.10
2022-11-27T22:56:36.384Z,17.10
2022-11-27T22:59:34.495Z,17.10
2022-11-27T23:01:55.590Z,17.20
2022-11-27T23:04:23.474Z,17.10
2022-11-27T23:06:51.497Z,17.10
2022-11-27T23:09:19.379Z,17.10
2022-11-27T23:11:47.854Z,17.10
2022-11-27T23:14:15.747Z,17.20
2022-11-27T23:16:43.729Z,17.10
2022-11-27T23:19:13.216Z,17.10
2022-11-27T23:21:41.590Z,17.10
2022-11-27T23:24:12.467Z,17.10
2022-11-27T23:26:40.398Z,17.20
2022-11-27T23:29:08.215Z,17.10
2022-11-27T23:31:36.450Z,17.10
2022-11-27T23:34:07.164Z,17.10
2022-11-27T23:36:36.770Z,17.10
2022-11-27T23:39:06.851Z,17.10
2022-11-27T23:41:34.678Z,17.10
2022-11-27T23:44:02.521Z,17.10
2022-11-27T23:46:31.314Z,17.10
2022-11-27T23:49:00.537Z,17.10
2022-11-27T23:51:31.446Z,17.10
2022-11-27T23:54:01.452Z,17.10
2022-11-27T23:56:30.858Z,17.10
2022-11-27T23:58:59.467Z,17.10
